createdAt,value
2022-11-30T00:00:14.132Z,0.00
2022-11-30T00:01:14.121Z,0.00
2022-11-30T00:02:14.266Z,0.00
2022-11-30T00:03:14.320Z,0.00
2022-11-30T00:04:14.097Z,0.00
2022-11-30T00:05:14.080Z,0.00
2022-11-30T00:06:14.070Z,0.00
2022-11-30T00:07:14.082Z,0.00
2022-11-30T00:08:14.050Z,0.00
2022-11-30T00:09:14.048Z,0.00
2022-11-30T00:10:14.023Z,0.00
2022-11-30T00:11:14.014Z,0.00
2022-11-30T00:12:13.997Z,0.00
2022-11-30T00:13:13.984Z,0.00
2022-11-30T00:14:13.994Z,0.00
2022-11-30T00:15:14.026Z,0.00
2022-11-30T00:16:14.035Z,0.00
2022-11-30T00:17:13.947Z,0.00
2022-11-30T00:18:13.937Z,0.00
2022-11-30T00:19:13.937Z,0.00
2022-11-30T00:20:13.912Z,0.00
2022-11-30T00:21:13.914Z,0.00
2022-11-30T00:22:13.894Z,0.00
2022-11-30T00:23:13.900Z,0.00
2022-11-30T00:24:13.866Z,0.00
2022-11-30T00:25:13.873Z,0.00
2022-11-30T00:26:13.846Z,0.00
2022-11-30T00:27:13.846Z,0.00
2022-11-30T00:28:13.830Z,0.00
2022-11-30T00:29:13.815Z,0.00
2022-11-30T00:30:13.802Z,0.00
2022-11-30T00:31:14.031Z,0.00
2022-11-30T00:32:13.775Z,0.00
2022-11-30T00:33:13.773Z,0.00
2022-11-30T00:34:21.289Z,0.00
2022-11-30T00:35:21.732Z,0.00
2022-11-30T00:36:21.271Z,0.00
2022-11-30T00:37:21.240Z,0.00
2022-11-30T00:38:13.714Z,0.00
2022-11-30T00:39:21.236Z,0.00
2022-11-30T00:40:22.216Z,0.00
2022-11-30T00:41:21.303Z,0.00
2022-11-30T00:42:21.197Z,0.00
2022-11-30T00:43:21.180Z,0.00
2022-11-30T00:44:21.170Z,0.00
2022-11-30T00:45:13.642Z,0.00
2022-11-30T00:46:13.698Z,0.00
2022-11-30T00:47:13.655Z,0.00
2022-11-30T00:48:13.603Z,0.00
2022-11-30T00:49:13.608Z,0.00
2022-11-30T00:50:21.113Z,0.00
2022-11-30T00:51:21.432Z,0.00
2022-11-30T00:52:13.562Z,0.00
2022-11-30T00:53:13.553Z,0.00
2022-11-30T00:54:13.558Z,0.00
2022-11-30T00:55:13.532Z,0.00
2022-11-30T00:56:13.526Z,0.00
2022-11-30T00:57:13.508Z,0.00
2022-11-30T00:58:13.497Z,0.00
2022-11-30T00:59:13.545Z,0.00
2022-11-30T01:00:13.495Z,0.00
2022-11-30T01:01:13.554Z,0.00
2022-11-30T01:02:13.532Z,0.00
2022-11-30T01:03:13.473Z,0.00
2022-11-30T01:04:13.432Z,0.00
2022-11-30T01:05:13.423Z,0.00
2022-11-30T01:06:13.425Z,0.00
2022-11-30T01:07:13.399Z,0.00
2022-11-30T01:08:13.393Z,0.00
2022-11-30T01:09:13.382Z,0.00
2022-11-30T01:10:13.365Z,0.00
2022-11-30T01:11:13.354Z,0.00
2022-11-30T01:12:13.353Z,0.00
2022-11-30T01:13:13.337Z,0.00
2022-11-30T01:14:13.327Z,0.00
2022-11-30T01:15:13.313Z,0.00
2022-11-30T01:16:13.348Z,0.00
2022-11-30T01:17:13.292Z,0.00
2022-11-30T01:18:13.305Z,0.00
2022-11-30T01:19:13.297Z,0.00
2022-11-30T01:20:13.256Z,0.00
2022-11-30T01:21:13.244Z,0.00
2022-11-30T01:22:13.233Z,0.00
2022-11-30T01:23:13.222Z,0.00
2022-11-30T01:24:13.228Z,0.00
2022-11-30T01:25:13.212Z,0.00
2022-11-30T01:26:13.189Z,0.00
2022-11-30T01:27:13.184Z,0.00
2022-11-30T01:28:13.164Z,0.00
2022-11-30T01:29:13.154Z,0.00
2022-11-30T01:30:13.153Z,0.00
2022-11-30T01:31:13.191Z,0.00
2022-11-30T01:32:13.124Z,0.00
2022-11-30T01:33:13.115Z,0.00
2022-11-30T01:34:13.103Z,0.00
2022-11-30T01:35:13.112Z,0.00
2022-11-30T01:36:13.086Z,0.00
2022-11-30T01:37:13.067Z,0.00
2022-11-30T01:38:13.067Z,0.00
2022-11-30T01:39:13.052Z,0.00
2022-11-30T01:40:13.029Z,0.00
2022-11-30T01:41:13.021Z,0.00
2022-11-30T01:42:13.022Z,0.00
2022-11-30T01:43:12.998Z,0.00
2022-11-30T01:44:18.156Z,0.00
2022-11-30T01:45:13.977Z,0.00
2022-11-30T01:46:13.005Z,0.00
2022-11-30T01:47:12.959Z,0.00
2022-11-30T01:48:12.952Z,0.00
2022-11-30T01:49:12.930Z,0.00
2022-11-30T01:50:12.986Z,0.00
2022-11-30T01:51:12.942Z,0.00
2022-11-30T01:52:12.898Z,0.00
2022-11-30T01:53:12.899Z,0.00
2022-11-30T01:54:12.875Z,0.00
2022-11-30T01:55:12.878Z,0.00
2022-11-30T01:56:12.889Z,0.00
2022-11-30T01:57:12.847Z,0.00
2022-11-30T01:58:12.833Z,0.00
2022-11-30T01:59:12.821Z,0.00
2022-11-30T02:00:12.816Z,0.00
2022-11-30T02:01:12.848Z,0.00
2022-11-30T02:02:12.857Z,0.00
2022-11-30T02:03:12.777Z,0.00
2022-11-30T02:04:12.770Z,0.00
2022-11-30T02:05:12.756Z,0.00
2022-11-30T02:06:12.748Z,0.00
2022-11-30T02:07:12.814Z,0.00
2022-11-30T02:08:12.869Z,0.00
2022-11-30T02:09:12.710Z,0.00
2022-11-30T02:10:12.703Z,0.00
2022-11-30T02:11:12.687Z,0.00
2022-11-30T02:12:12.677Z,0.00
2022-11-30T02:13:12.681Z,0.00
2022-11-30T02:14:12.713Z,0.00
2022-11-30T02:15:12.645Z,0.00
2022-11-30T02:16:12.695Z,0.00
2022-11-30T02:17:12.625Z,0.00
2022-11-30T02:18:12.610Z,0.00
2022-11-30T02:19:12.601Z,0.00
2022-11-30T02:20:12.592Z,0.00
2022-11-30T02:21:12.583Z,0.00
2022-11-30T02:22:12.583Z,0.00
2022-11-30T02:23:12.580Z,0.00
2022-11-30T02:24:12.545Z,0.00
2022-11-30T02:25:12.554Z,0.00
2022-11-30T02:26:12.572Z,0.00
2022-11-30T02:27:12.516Z,0.00
2022-11-30T02:28:12.502Z,0.00
2022-11-30T02:29:12.501Z,0.00
2022-11-30T02:30:12.488Z,0.00
2022-11-30T02:31:12.538Z,0.00
2022-11-30T02:32:12.465Z,0.00
2022-11-30T02:33:12.447Z,0.00
2022-11-30T02:34:12.450Z,0.00
2022-11-30T02:35:12.434Z,0.00
2022-11-30T02:36:12.411Z,0.00
2022-11-30T02:37:12.400Z,0.00
2022-11-30T02:38:12.398Z,0.00
2022-11-30T02:39:12.403Z,0.00
2022-11-30T02:40:12.480Z,0.00
2022-11-30T02:41:12.358Z,0.00
2022-11-30T02:42:12.347Z,0.00
2022-11-30T02:43:12.345Z,0.00
2022-11-30T02:44:12.327Z,0.00
2022-11-30T02:45:12.312Z,0.00
2022-11-30T02:46:12.359Z,0.00
2022-11-30T02:47:12.286Z,0.00
2022-11-30T02:48:12.279Z,0.00
2022-11-30T02:49:12.271Z,0.00
2022-11-30T02:50:12.262Z,0.00
2022-11-30T02:51:12.247Z,0.00
2022-11-30T02:52:12.355Z,0.00
2022-11-30T02:53:12.229Z,0.00
2022-11-30T02:54:12.215Z,0.00
2022-11-30T02:55:12.228Z,0.00
2022-11-30T02:56:12.193Z,0.00
2022-11-30T02:57:12.191Z,0.00
2022-11-30T02:58:12.193Z,0.00
2022-11-30T02:59:12.159Z,0.00
2022-11-30T03:00:12.157Z,0.00
2022-11-30T03:01:12.178Z,0.00
2022-11-30T03:02:12.124Z,0.00
2022-11-30T03:03:12.117Z,0.00
2022-11-30T03:04:12.125Z,0.00
2022-11-30T03:05:12.111Z,0.00
2022-11-30T03:06:12.080Z,0.00
2022-11-30T03:07:12.073Z,0.00
2022-11-30T03:08:12.062Z,0.00
2022-11-30T03:09:12.046Z,0.00
2022-11-30T03:10:12.059Z,0.00
2022-11-30T03:11:12.048Z,0.00
2022-11-30T03:12:12.014Z,0.00
2022-11-30T03:13:12.000Z,0.00
2022-11-30T03:14:11.999Z,0.00
2022-11-30T03:15:11.989Z,0.00
2022-11-30T03:16:12.277Z,0.00
2022-11-30T03:17:11.963Z,0.00
2022-11-30T03:18:11.952Z,0.00
2022-11-30T03:19:11.977Z,0.00
2022-11-30T03:20:11.929Z,0.00
2022-11-30T03:21:11.926Z,0.00
2022-11-30T03:22:11.909Z,0.00
2022-11-30T03:23:11.890Z,0.00
2022-11-30T03:24:11.883Z,0.00
2022-11-30T03:25:11.871Z,0.00
2022-11-30T03:26:11.875Z,0.00
2022-11-30T03:27:11.881Z,0.00
2022-11-30T03:28:11.846Z,0.00
2022-11-30T03:29:11.830Z,0.00
2022-11-30T03:30:11.816Z,0.00
2022-11-30T03:31:11.909Z,0.00
2022-11-30T03:32:11.804Z,0.00
2022-11-30T03:33:11.781Z,0.00
2022-11-30T03:34:11.784Z,0.00
2022-11-30T03:35:11.760Z,0.00
2022-11-30T03:36:11.750Z,0.00
2022-11-30T03:37:11.743Z,0.00
2022-11-30T03:38:11.738Z,0.00
2022-11-30T03:39:11.712Z,0.00
2022-11-30T03:40:11.708Z,0.00
2022-11-30T03:41:11.691Z,0.00
2022-11-30T03:42:11.784Z,0.00
2022-11-30T03:43:11.696Z,0.00
2022-11-30T03:44:11.662Z,0.00
2022-11-30T03:45:11.649Z,0.00
2022-11-30T03:46:11.703Z,0.00
2022-11-30T03:47:11.624Z,0.00
2022-11-30T03:48:11.624Z,0.00
2022-11-30T03:49:11.607Z,0.00
2022-11-30T03:50:11.590Z,0.00
2022-11-30T03:51:11.608Z,0.00
2022-11-30T03:52:11.579Z,0.00
2022-11-30T03:53:11.559Z,0.00
2022-11-30T03:54:11.557Z,0.00
2022-11-30T03:55:11.541Z,0.00
2022-11-30T03:56:11.536Z,0.00
2022-11-30T03:57:11.525Z,0.00
2022-11-30T03:58:11.559Z,0.00
2022-11-30T03:59:11.533Z,0.00
2022-11-30T04:00:11.486Z,0.00
2022-11-30T04:01:11.469Z,0.00
2022-11-30T04:02:11.524Z,0.00
2022-11-30T04:03:11.490Z,0.00
2022-11-30T04:04:11.444Z,0.00
2022-11-30T04:05:11.428Z,0.00
2022-11-30T04:06:11.418Z,0.00
2022-11-30T04:07:11.405Z,0.00
2022-11-30T04:08:11.406Z,0.00
2022-11-30T04:09:11.395Z,0.00
2022-11-30T04:10:11.386Z,0.00
2022-11-30T04:11:11.362Z,0.00
2022-11-30T04:12:11.354Z,0.00
2022-11-30T04:13:11.338Z,0.00
2022-11-30T04:14:11.339Z,0.00
2022-11-30T04:15:11.348Z,0.00
2022-11-30T04:16:11.404Z,0.00
2022-11-30T04:17:11.295Z,0.00
2022-11-30T04:18:11.286Z,0.00
2022-11-30T04:19:11.273Z,0.00
2022-11-30T04:20:11.262Z,0.00
2022-11-30T04:21:11.249Z,0.00
2022-11-30T04:22:11.310Z,0.00
2022-11-30T04:23:11.232Z,0.00
2022-11-30T04:24:11.217Z,0.00
2022-11-30T04:25:11.205Z,0.00
2022-11-30T04:26:11.207Z,0.00
2022-11-30T04:27:11.197Z,0.00
2022-11-30T04:28:11.197Z,0.00
2022-11-30T04:29:11.178Z,0.00
2022-11-30T04:30:11.149Z,0.00
2022-11-30T04:31:11.237Z,0.00
2022-11-30T04:32:11.142Z,0.00
2022-11-30T04:33:11.119Z,0.00
2022-11-30T04:34:11.121Z,0.00
2022-11-30T04:35:11.103Z,0.00
2022-11-30T04:36:11.087Z,0.00
2022-11-30T04:37:11.073Z,0.00
2022-11-30T04:38:11.080Z,0.00
2022-11-30T04:39:11.057Z,0.00
2022-11-30T04:40:11.044Z,0.00
2022-11-30T04:41:11.142Z,0.00
2022-11-30T04:42:11.023Z,0.00
2022-11-30T04:43:11.008Z,0.00
2022-11-30T04:44:11.001Z,0.00
2022-11-30T04:45:10.991Z,0.00
2022-11-30T04:46:11.056Z,0.00
2022-11-30T04:47:11.007Z,0.00
2022-11-30T04:48:10.959Z,0.00
2022-11-30T04:49:10.951Z,0.00
2022-11-30T04:50:10.938Z,0.00
2022-11-30T04:51:10.924Z,0.00
2022-11-30T04:52:10.921Z,0.00
2022-11-30T04:53:11.009Z,0.00
2022-11-30T04:54:10.897Z,0.00
2022-11-30T04:55:10.880Z,0.00
2022-11-30T04:56:10.874Z,0.00
2022-11-30T04:57:10.859Z,0.00
2022-11-30T04:58:10.863Z,0.00
2022-11-30T04:59:10.943Z,0.00
2022-11-30T05:00:10.824Z,0.00
2022-11-30T05:01:10.824Z,0.00
2022-11-30T05:02:10.806Z,0.00
2022-11-30T05:03:10.819Z,0.00
2022-11-30T05:04:10.823Z,0.00
2022-11-30T05:05:10.788Z,0.00
2022-11-30T05:06:10.778Z,0.00
2022-11-30T05:07:10.755Z,0.00
2022-11-30T05:08:10.741Z,0.00
2022-11-30T05:09:10.736Z,0.00
2022-11-30T05:10:10.772Z,0.00
2022-11-30T05:11:10.713Z,0.00
2022-11-30T05:12:10.713Z,0.00
2022-11-30T05:13:10.691Z,0.00
2022-11-30T05:14:10.680Z,0.00
2022-11-30T05:15:10.663Z,0.00
2022-11-30T05:16:10.761Z,0.00
2022-11-30T05:17:10.647Z,0.00
2022-11-30T05:18:10.648Z,0.00
2022-11-30T05:19:10.652Z,0.00
2022-11-30T05:20:10.612Z,0.00
2022-11-30T05:21:10.614Z,0.00
2022-11-30T05:22:10.590Z,0.00
2022-11-30T05:23:10.575Z,0.00
2022-11-30T05:24:10.582Z,0.00
2022-11-30T05:25:10.581Z,0.00
2022-11-30T05:26:10.545Z,0.00
2022-11-30T05:27:14.439Z,0.00
2022-11-30T05:28:11.548Z,0.00
2022-11-30T05:29:10.514Z,0.00
2022-11-30T05:30:10.510Z,0.00
2022-11-30T05:31:10.537Z,0.00
2022-11-30T05:32:10.486Z,0.00
2022-11-30T05:33:10.471Z,0.00
2022-11-30T05:34:10.462Z,0.00
2022-11-30T05:35:10.491Z,0.00
2022-11-30T05:36:11.130Z,0.00
2022-11-30T05:37:10.426Z,0.00
2022-11-30T05:38:10.412Z,0.00
2022-11-30T05:39:10.408Z,0.00
2022-11-30T05:40:10.393Z,0.00
2022-11-30T05:41:10.410Z,0.00
2022-11-30T05:42:10.374Z,0.00
2022-11-30T05:43:10.359Z,0.00
2022-11-30T05:44:10.356Z,0.00
2022-11-30T05:45:10.341Z,0.00
2022-11-30T05:46:10.329Z,0.00
2022-11-30T05:47:10.451Z,0.00
2022-11-30T05:48:10.315Z,0.00
2022-11-30T05:49:10.300Z,0.00
2022-11-30T05:50:10.284Z,0.00
2022-11-30T05:51:10.299Z,0.00
2022-11-30T05:52:10.258Z,0.00
2022-11-30T05:53:10.250Z,0.00
2022-11-30T05:54:10.248Z,0.00
2022-11-30T05:55:10.232Z,0.00
2022-11-30T05:56:10.219Z,0.00
2022-11-30T05:57:10.203Z,0.00
2022-11-30T05:58:10.192Z,0.00
2022-11-30T05:59:10.288Z,0.00
2022-11-30T06:00:10.173Z,0.00
2022-11-30T06:01:10.215Z,0.00
2022-11-30T06:02:10.251Z,0.00
2022-11-30T06:03:10.312Z,0.00
2022-11-30T06:04:10.130Z,0.00
2022-11-30T06:05:10.129Z,0.00
2022-11-30T06:06:10.107Z,0.00
2022-11-30T06:07:10.130Z,0.00
2022-11-30T06:08:10.087Z,0.00
2022-11-30T06:09:10.076Z,0.00
2022-11-30T06:10:10.068Z,0.00
2022-11-30T06:11:10.057Z,0.00
2022-11-30T06:12:10.040Z,0.00
2022-11-30T06:13:10.034Z,0.00
2022-11-30T06:14:10.019Z,0.00
2022-11-30T06:15:10.004Z,0.00
2022-11-30T06:16:10.128Z,0.00
2022-11-30T06:17:09.986Z,4.00
2022-11-30T06:18:09.976Z,4.00
2022-11-30T06:19:09.982Z,4.00
2022-11-30T06:20:09.979Z,4.00
2022-11-30T06:21:09.943Z,8.00
2022-11-30T06:22:09.943Z,8.00
2022-11-30T06:23:09.958Z,8.00
2022-11-30T06:24:09.922Z,8.00
2022-11-30T06:25:09.904Z,12.00
2022-11-30T06:26:09.892Z,12.00
2022-11-30T06:27:09.875Z,16.00
2022-11-30T06:28:09.869Z,16.00
2022-11-30T06:29:09.867Z,20.00
2022-11-30T06:30:09.845Z,20.00
2022-11-30T06:31:09.930Z,24.00
2022-11-30T06:32:09.818Z,24.00
2022-11-30T06:33:09.816Z,28.00
2022-11-30T06:34:09.800Z,32.00
2022-11-30T06:35:09.796Z,32.00
2022-11-30T06:36:09.789Z,40.00
2022-11-30T06:37:09.772Z,44.00
2022-11-30T06:38:09.763Z,48.00
2022-11-30T06:39:09.774Z,56.00
2022-11-30T06:40:09.735Z,64.00
2022-11-30T06:41:09.743Z,72.00
2022-11-30T06:42:09.713Z,76.00
2022-11-30T06:43:09.714Z,88.00
2022-11-30T06:44:09.694Z,92.00
2022-11-30T06:45:09.675Z,100.00
2022-11-30T06:46:09.779Z,104.00
2022-11-30T06:47:09.665Z,112.00
2022-11-30T06:48:09.645Z,124.00
2022-11-30T06:49:09.634Z,140.00
2022-11-30T06:50:09.633Z,164.00
2022-11-30T06:51:09.611Z,188.00
2022-11-30T06:52:09.611Z,216.00
2022-11-30T06:53:09.585Z,240.00
2022-11-30T06:54:09.583Z,264.00
2022-11-30T06:55:09.606Z,292.00
2022-11-30T06:56:10.729Z,312.00
2022-11-30T06:57:09.544Z,328.00
2022-11-30T06:58:09.547Z,344.00
2022-11-30T06:59:09.534Z,356.00
2022-11-30T07:00:09.511Z,352.00
2022-11-30T07:01:09.730Z,356.00
2022-11-30T07:02:13.079Z,372.00
2022-11-30T07:03:10.482Z,392.00
2022-11-30T07:04:09.527Z,416.00
2022-11-30T07:05:09.469Z,448.00
2022-11-30T07:06:09.448Z,492.00
2022-11-30T07:07:09.495Z,532.00
2022-11-30T07:08:09.419Z,564.00
2022-11-30T07:09:09.410Z,592.00
2022-11-30T07:10:09.406Z,616.00
2022-11-30T07:11:09.431Z,640.00
2022-11-30T07:12:09.393Z,660.00
2022-11-30T07:13:09.373Z,668.00
2022-11-30T07:14:09.359Z,680.00
2022-11-30T07:15:09.348Z,688.00
2022-11-30T07:16:09.395Z,696.00
2022-11-30T07:17:09.338Z,716.00
2022-11-30T07:18:09.315Z,740.00
2022-11-30T07:19:09.309Z,772.00
2022-11-30T07:20:09.300Z,812.00
2022-11-30T07:21:09.283Z,848.00
2022-11-30T07:22:09.278Z,880.00
2022-11-30T07:23:09.266Z,904.00
2022-11-30T07:24:09.247Z,936.00
2022-11-30T07:25:09.247Z,992.00
2022-11-30T07:26:16.796Z,1064.00
2022-11-30T07:27:09.218Z,1132.00
2022-11-30T07:28:17.082Z,1176.00
2022-11-30T07:29:16.714Z,1212.00
2022-11-30T07:30:09.181Z,1252.00
2022-11-30T07:31:14.779Z,1272.00
2022-11-30T07:32:10.206Z,1312.00
2022-11-30T07:33:09.163Z,1372.00
2022-11-30T07:34:09.157Z,1424.00
2022-11-30T07:35:16.662Z,1428.00
2022-11-30T07:36:09.118Z,1412.00
2022-11-30T07:37:09.105Z,1384.00
2022-11-30T07:38:10.017Z,1364.00
2022-11-30T07:39:09.086Z,1348.00
2022-11-30T07:40:09.076Z,1336.00
2022-11-30T07:41:09.068Z,1360.00
2022-11-30T07:42:09.081Z,1424.00
2022-11-30T07:43:09.050Z,1508.00
2022-11-30T07:44:09.047Z,1592.00
2022-11-30T07:45:09.179Z,1684.00
2022-11-30T07:46:09.068Z,1784.00
2022-11-30T07:47:09.000Z,1900.00
2022-11-30T07:48:08.990Z,2024.00
2022-11-30T07:49:08.977Z,2172.00
2022-11-30T07:50:08.980Z,2332.00
2022-11-30T07:51:08.965Z,2464.00
2022-11-30T07:52:08.966Z,2576.00
2022-11-30T07:53:08.933Z,2616.00
2022-11-30T07:54:08.916Z,2652.00
2022-11-30T07:55:08.916Z,2668.00
2022-11-30T07:56:08.917Z,2632.00
2022-11-30T07:57:08.898Z,2560.00
2022-11-30T07:58:12.867Z,2524.00
2022-11-30T07:59:09.867Z,2468.00
2022-11-30T08:00:08.864Z,2428.00
2022-11-30T08:01:08.948Z,2436.00
2022-11-30T08:02:08.942Z,2476.00
2022-11-30T08:03:08.837Z,2532.00
2022-11-30T08:04:08.915Z,2584.00
2022-11-30T08:05:08.798Z,2616.00
2022-11-30T08:06:08.792Z,2684.00
2022-11-30T08:07:08.880Z,2720.00
2022-11-30T08:08:08.763Z,2732.00
2022-11-30T08:09:08.756Z,2752.00
2022-11-30T08:10:08.749Z,2760.00
2022-11-30T08:11:08.734Z,2768.00
2022-11-30T08:12:08.734Z,2768.00
2022-11-30T08:13:08.727Z,2756.00
2022-11-30T08:14:08.741Z,2756.00
2022-11-30T08:15:19.738Z,2776.00
2022-11-30T08:16:09.676Z,2740.00
2022-11-30T08:17:08.722Z,2636.00
2022-11-30T08:18:08.656Z,2596.00
2022-11-30T08:19:08.656Z,2444.00
2022-11-30T08:20:08.635Z,2352.00
2022-11-30T08:21:08.629Z,2344.00
2022-11-30T08:22:08.609Z,2388.00
2022-11-30T08:23:08.604Z,2448.00
2022-11-30T08:24:08.641Z,2472.00
2022-11-30T08:25:08.595Z,2500.00
2022-11-30T08:26:08.570Z,2560.00
2022-11-30T08:27:08.558Z,2632.00
2022-11-30T08:28:08.552Z,2756.00
2022-11-30T08:29:08.535Z,2932.00
2022-11-30T08:30:08.557Z,3156.00
2022-11-30T08:31:08.589Z,3420.00
2022-11-30T08:32:08.498Z,3668.00
2022-11-30T08:33:08.500Z,3848.00
2022-11-30T08:34:08.484Z,4096.00
2022-11-30T08:35:08.478Z,4360.00
2022-11-30T08:36:08.464Z,4576.00
2022-11-30T08:37:08.452Z,4732.00
2022-11-30T08:38:08.442Z,4784.00
2022-11-30T08:39:08.432Z,4720.00
2022-11-30T08:40:08.409Z,4672.00
2022-11-30T08:41:08.405Z,4476.00
2022-11-30T08:42:08.402Z,4080.00
2022-11-30T08:43:08.390Z,3832.00
2022-11-30T08:44:08.366Z,3816.00
2022-11-30T08:45:08.381Z,3872.00
2022-11-30T08:46:16.148Z,3864.00
2022-11-30T08:47:09.374Z,3800.00
2022-11-30T08:48:08.326Z,3748.00
2022-11-30T08:49:24.815Z,3580.00
2022-11-30T08:50:09.318Z,3416.00
2022-11-30T08:51:08.295Z,3312.00
2022-11-30T08:53:09.271Z,3216.00
2022-11-30T08:54:08.261Z,3236.00
2022-11-30T08:55:08.264Z,3276.00
2022-11-30T08:56:08.251Z,3320.00
2022-11-30T08:57:08.226Z,3416.00
2022-11-30T08:58:08.217Z,3620.00
2022-11-30T08:59:08.207Z,3888.00
2022-11-30T09:00:08.192Z,4188.00
2022-11-30T09:01:08.192Z,4420.00
2022-11-30T09:02:08.305Z,4516.00
2022-11-30T09:03:08.161Z,4556.00
2022-11-30T09:04:08.152Z,4544.00
2022-11-30T09:05:08.144Z,4536.00
2022-11-30T09:06:08.140Z,4656.00
2022-11-30T09:07:08.119Z,4872.00
2022-11-30T09:08:08.180Z,5100.00
2022-11-30T09:09:08.099Z,5220.00
2022-11-30T09:10:08.099Z,5160.00
2022-11-30T09:11:08.100Z,4976.00
2022-11-30T09:12:08.087Z,4764.00
2022-11-30T09:13:08.067Z,4596.00
2022-11-30T09:14:08.042Z,4488.00
2022-11-30T09:15:08.027Z,4452.00
2022-11-30T09:16:08.072Z,4436.00
2022-11-30T09:17:08.016Z,4472.00
2022-11-30T09:18:08.031Z,4504.00
2022-11-30T09:19:07.984Z,4560.00
2022-11-30T09:20:07.979Z,4604.00
2022-11-30T09:21:07.962Z,4656.00
2022-11-30T09:22:07.971Z,4708.00
2022-11-30T09:23:07.936Z,4724.00
2022-11-30T09:24:07.928Z,4704.00
2022-11-30T09:25:07.912Z,4672.00
2022-11-30T09:26:07.910Z,4652.00
2022-11-30T09:27:07.903Z,4536.00
2022-11-30T09:28:12.136Z,4448.00
2022-11-30T09:29:07.875Z,4364.00
2022-11-30T09:30:07.863Z,4344.00
2022-11-30T09:31:07.922Z,4340.00
2022-11-30T09:32:07.844Z,4356.00
2022-11-30T09:33:07.828Z,4364.00
2022-11-30T09:34:07.876Z,4432.00
2022-11-30T09:35:12.617Z,4512.00
2022-11-30T09:36:08.797Z,4652.00
2022-11-30T09:37:07.782Z,4864.00
2022-11-30T09:38:07.783Z,4900.00
2022-11-30T09:39:07.761Z,5008.00
2022-11-30T09:40:07.764Z,5056.00
2022-11-30T09:41:07.742Z,5236.00
2022-11-30T09:42:07.731Z,5444.00
2022-11-30T09:43:07.719Z,5664.00
2022-11-30T09:44:07.722Z,5688.00
2022-11-30T09:45:07.701Z,5756.00
2022-11-30T09:46:07.787Z,5708.00
2022-11-30T09:47:07.693Z,5684.00
2022-11-30T09:48:07.667Z,5704.00
2022-11-30T09:50:26.021Z,5972.00
2022-11-30T09:51:25.964Z,6428.00
2022-11-30T09:52:25.951Z,6984.00
2022-11-30T09:53:29.522Z,7480.00
2022-11-30T09:54:25.944Z,7744.00
2022-11-30T09:55:25.920Z,7792.00
2022-11-30T09:56:25.914Z,7444.00
2022-11-30T09:57:25.905Z,7308.00
2022-11-30T09:58:25.883Z,7424.00
2022-11-30T09:59:25.882Z,7408.00
2022-11-30T10:00:25.879Z,7552.00
2022-11-30T10:01:29.319Z,7660.00
2022-11-30T10:02:27.013Z,7748.00
2022-11-30T10:03:25.903Z,7824.00
2022-11-30T10:04:25.827Z,7796.00
2022-11-30T10:05:25.809Z,7724.00
2022-11-30T10:06:25.955Z,7336.00
2022-11-30T10:07:25.891Z,6992.00
2022-11-30T10:08:25.776Z,6952.00
2022-11-30T10:09:25.770Z,7092.00
2022-11-30T10:10:33.686Z,7128.00
2022-11-30T10:11:26.858Z,6968.00
2022-11-30T10:12:25.739Z,6780.00
2022-11-30T10:13:25.722Z,6648.00
2022-11-30T10:14:25.714Z,6628.00
2022-11-30T10:15:25.703Z,6840.00
2022-11-30T10:16:25.768Z,7068.00
2022-11-30T10:17:25.697Z,7268.00
2022-11-30T10:18:25.668Z,7420.00
2022-11-30T10:19:25.658Z,7656.00
2022-11-30T10:20:25.653Z,7664.00
2022-11-30T10:21:25.639Z,7608.00
2022-11-30T10:22:25.696Z,7484.00
2022-11-30T10:23:25.612Z,7308.00
2022-11-30T10:24:25.606Z,7188.00
2022-11-30T10:25:25.598Z,6960.00
2022-11-30T10:26:25.582Z,6956.00
2022-11-30T10:27:25.584Z,7100.00
2022-11-30T10:28:46.660Z,7032.00
2022-11-30T10:29:26.551Z,6988.00
2022-11-30T10:30:25.541Z,7008.00
2022-11-30T10:31:25.634Z,7144.00
2022-11-30T10:32:25.520Z,7132.00
2022-11-30T10:33:25.532Z,7168.00
2022-11-30T10:34:25.567Z,7356.00
2022-11-30T10:35:25.486Z,7468.00
2022-11-30T10:36:25.480Z,7464.00
2022-11-30T10:37:25.465Z,7456.00
2022-11-30T10:38:25.487Z,7608.00
2022-11-30T10:39:25.463Z,7852.00
2022-11-30T10:40:25.428Z,8508.00
2022-11-30T10:41:25.437Z,9360.00
2022-11-30T10:42:25.413Z,9980.00
2022-11-30T10:43:25.400Z,10132.00
2022-11-30T10:44:25.391Z,10632.00
2022-11-30T10:45:25.395Z,11072.00
2022-11-30T10:46:25.432Z,11616.00
2022-11-30T10:47:25.370Z,11556.00
2022-11-30T10:48:25.345Z,11644.00
2022-11-30T10:49:25.335Z,11712.00
2022-11-30T10:50:25.325Z,11264.00
2022-11-30T10:51:25.322Z,10948.00
2022-11-30T10:52:25.307Z,11116.00
2022-11-30T10:53:25.328Z,11548.00
2022-11-30T10:54:25.305Z,11920.00
2022-11-30T10:55:25.274Z,12444.00
2022-11-30T10:56:25.275Z,13720.00
2022-11-30T10:57:25.253Z,13324.00
2022-11-30T10:58:25.240Z,12600.00
2022-11-30T10:59:25.235Z,12112.00
2022-11-30T11:00:25.230Z,11664.00
2022-11-30T11:01:25.251Z,11236.00
2022-11-30T11:02:25.285Z,11168.00
2022-11-30T11:03:25.186Z,10404.00
2022-11-30T11:04:25.430Z,10460.00
2022-11-30T11:05:25.166Z,10900.00
2022-11-30T11:06:25.175Z,10760.00
2022-11-30T11:07:25.292Z,10708.00
2022-11-30T11:08:25.244Z,10072.00
2022-11-30T11:09:25.131Z,9760.00
2022-11-30T11:10:25.139Z,9124.00
2022-11-30T11:11:25.106Z,8640.00
2022-11-30T11:12:25.225Z,8648.00
2022-11-30T11:13:25.082Z,9192.00
2022-11-30T11:14:25.073Z,9244.00
2022-11-30T11:15:25.307Z,9512.00
2022-11-30T11:16:25.123Z,10380.00
2022-11-30T11:17:25.039Z,10608.00
2022-11-30T11:18:25.046Z,10692.00
2022-11-30T11:19:25.022Z,9336.00
2022-11-30T11:20:25.012Z,8896.00
2022-11-30T11:21:25.003Z,8868.00
2022-11-30T11:22:24.986Z,8532.00
2022-11-30T11:23:24.976Z,8208.00
2022-11-30T11:24:25.022Z,7648.00
2022-11-30T11:25:24.965Z,7516.00
2022-11-30T11:26:24.976Z,7556.00
2022-11-30T11:27:24.933Z,8032.00
2022-11-30T11:28:24.917Z,8660.00
2022-11-30T11:29:24.923Z,8708.00
2022-11-30T11:30:24.947Z,7768.00
2022-11-30T11:31:24.969Z,7544.00
2022-11-30T11:32:24.891Z,7396.00
2022-11-30T11:33:24.868Z,7204.00
2022-11-30T11:34:24.865Z,6968.00
2022-11-30T11:35:24.858Z,7004.00
2022-11-30T11:36:24.846Z,7048.00
2022-11-30T11:37:24.824Z,7128.00
2022-11-30T11:38:24.815Z,7064.00
2022-11-30T11:39:24.820Z,7096.00
2022-11-30T11:40:24.805Z,7140.00
2022-11-30T11:41:24.783Z,7028.00
2022-11-30T11:42:24.822Z,6980.00
2022-11-30T11:43:24.774Z,7096.00
2022-11-30T11:44:24.748Z,7572.00
2022-11-30T11:45:24.735Z,7696.00
2022-11-30T11:46:24.767Z,7812.00
2022-11-30T11:47:24.720Z,8152.00
2022-11-30T11:48:28.832Z,8640.00
2022-11-30T11:49:24.697Z,9320.00
2022-11-30T11:50:57.907Z,9680.00
2022-11-30T11:51:25.674Z,9560.00
2022-11-30T11:52:24.680Z,9276.00
2022-11-30T11:53:24.729Z,8564.00
2022-11-30T11:54:24.650Z,8072.00
2022-11-30T11:55:24.634Z,7636.00
2022-11-30T11:56:24.617Z,7296.00
2022-11-30T11:57:24.622Z,7056.00
2022-11-30T11:58:24.628Z,6888.00
2022-11-30T11:59:29.402Z,6628.00
2022-11-30T12:00:25.581Z,6336.00
2022-11-30T12:01:39.709Z,6040.00
2022-11-30T12:02:25.707Z,5776.00
2022-11-30T12:03:24.547Z,5736.00
2022-11-30T12:04:24.618Z,5912.00
2022-11-30T12:05:24.528Z,6048.00
2022-11-30T12:06:24.569Z,6408.00
2022-11-30T12:07:24.535Z,6392.00
2022-11-30T12:08:24.503Z,6312.00
2022-11-30T12:09:24.483Z,6160.00
2022-11-30T12:10:54.618Z,5984.00
2022-11-30T12:11:25.464Z,6096.00
2022-11-30T12:12:24.453Z,6220.00
2022-11-30T12:13:24.449Z,6512.00
2022-11-30T12:14:24.460Z,6832.00
2022-11-30T12:15:24.424Z,6964.00
2022-11-30T12:16:24.478Z,6904.00
2022-11-30T12:17:24.400Z,6780.00
2022-11-30T12:18:24.565Z,6472.00
2022-11-30T12:19:24.390Z,6016.00
2022-11-30T12:20:24.365Z,6068.00
2022-11-30T12:21:24.361Z,6084.00
2022-11-30T12:22:24.341Z,5820.00
2022-11-30T12:23:24.335Z,6288.00
2022-11-30T12:24:24.392Z,6816.00
2022-11-30T12:25:24.325Z,6376.00
2022-11-30T12:26:24.300Z,5132.00
2022-11-30T12:27:24.297Z,4740.00
2022-11-30T12:28:24.303Z,4516.00
2022-11-30T12:29:24.270Z,4108.00
2022-11-30T12:30:24.319Z,3932.00
2022-11-30T12:31:24.317Z,3860.00
2022-11-30T12:32:24.246Z,4124.00
2022-11-30T12:33:25.340Z,4392.00
2022-11-30T12:34:24.217Z,4472.00
2022-11-30T12:35:24.202Z,4548.00
2022-11-30T12:36:24.197Z,4620.00
2022-11-30T12:37:24.196Z,4556.00
2022-11-30T12:38:24.175Z,4200.00
2022-11-30T12:39:24.159Z,4040.00
2022-11-30T12:40:24.153Z,3688.00
2022-11-30T12:41:24.137Z,3428.00
2022-11-30T12:42:24.139Z,3540.00
2022-11-30T12:43:24.128Z,3372.00
2022-11-30T12:44:24.116Z,3264.00